sensor_id;sensor_type;location;lat;lon;timestamp;P1;durP1;ratioP1;P2;durP2;ratioP2
59938;SDS011;45801;51.810;19.444;2023-06-26T00:00:46;14.70;;;7.30;;
59938;SDS011;45801;51.810;19.444;2023-06-26T00:03:33;13.50;;;6.80;;
59938;SDS011;45801;51.810;19.444;2023-06-26T00:06:00;13.40;;;7.20;;
59938;SDS011;45801;51.810;19.444;2023-06-26T00:08:27;15.60;;;7.80;;
59938;SDS011;45801;51.810;19.444;2023-06-26T00:10:54;13.00;;;6.90;;
59938;SDS011;45801;51.810;19.444;2023-06-26T00:13:23;12.10;;;6.50;;
59938;SDS011;45801;51.810;19.444;2023-06-26T00:15:50;12.20;;;6.50;;
59938;SDS011;45801;51.810;19.444;2023-06-26T00:18:17;12.30;;;6.40;;
59938;SDS011;45801;51.810;19.444;2023-06-26T00:20:44;13.20;;;6.40;;
59938;SDS011;45801;51.810;19.444;2023-06-26T00:23:12;11.80;;;6.10;;
59938;SDS011;45801;51.810;19.444;2023-06-26T00:25:39;12.90;;;7.10;;
59938;SDS011;45801;51.810;19.444;2023-06-26T00:28:06;12.40;;;6.40;;
59938;SDS011;45801;51.810;19.444;2023-06-26T00:30:32;12.20;;;6.40;;
59938;SDS011;45801;51.810;19.444;2023-06-26T00:32:58;12.20;;;7.00;;
59938;SDS011;45801;51.810;19.444;2023-06-26T00:35:25;13.90;;;6.70;;
59938;SDS011;45801;51.810;19.444;2023-06-26T00:37:51;12.70;;;6.90;;
59938;SDS011;45801;51.810;19.444;2023-06-26T00:40:18;11.50;;;6.70;;
59938;SDS011;45801;51.810;19.444;2023-06-26T00:42:44;11.70;;;6.40;;
59938;SDS011;45801;51.810;19.444;2023-06-26T00:45:11;11.40;;;6.00;;
59938;SDS011;45801;51.810;19.444;2023-06-26T00:47:37;13.30;;;6.40;;
59938;SDS011;45801;51.810;19.444;2023-06-26T00:50:05;13.10;;;7.30;;
59938;SDS011;45801;51.810;19.444;2023-06-26T00:52:32;14.70;;;6.80;;
59938;SDS011;45801;51.810;19.444;2023-06-26T00:54:58;12.20;;;6.50;;
59938;SDS011;45801;51.810;19.444;2023-06-26T00:57:25;10.60;;;6.00;;
59938;SDS011;45801;51.810;19.444;2023-06-26T00:59:53;13.10;;;6.20;;
59938;SDS011;45801;51.810;19.444;2023-06-26T01:02:19;13.40;;;6.40;;
59938;SDS011;45801;51.810;19.444;2023-06-26T01:04:49;10.70;;;5.80;;
59938;SDS011;45801;51.810;19.444;2023-06-26T01:07:16;12.10;;;6.60;;
59938;SDS011;45801;51.810;19.444;2023-06-26T01:09:46;11.40;;;6.10;;
59938;SDS011;45801;51.810;19.444;2023-06-26T01:12:15;11.50;;;6.80;;
59938;SDS011;45801;51.810;19.444;2023-06-26T01:14:41;12.10;;;6.80;;
59938;SDS011;45801;51.810;19.444;2023-06-26T01:17:09;15.10;;;6.90;;
59938;SDS011;45801;51.810;19.444;2023-06-26T01:22:14;13.30;;;6.20;;
59938;SDS011;45801;51.810;19.444;2023-06-26T01:24:44;13.10;;;6.10;;
59938;SDS011;45801;51.810;19.444;2023-06-26T01:27:19;11.30;;;6.00;;
59938;SDS011;45801;51.810;19.444;2023-06-26T01:29:49;12.00;;;6.30;;
59938;SDS011;45801;51.810;19.444;2023-06-26T01:32:17;10.70;;;5.70;;
59938;SDS011;45801;51.810;19.444;2023-06-26T01:34:45;10.10;;;6.10;;
59938;SDS011;45801;51.810;19.444;2023-06-26T01:37:11;11.10;;;6.20;;
59938;SDS011;45801;51.810;19.444;2023-06-26T01:39:39;11.50;;;6.90;;
59938;SDS011;45801;51.810;19.444;2023-06-26T01:42:05;12.00;;;6.30;;
59938;SDS011;45801;51.810;19.444;2023-06-26T01:44:34;12.70;;;6.50;;
59938;SDS011;45801;51.810;19.444;2023-06-26T01:47:03;11.00;;;6.90;;
59938;SDS011;45801;51.810;19.444;2023-06-26T01:49:33;10.50;;;6.10;;
59938;SDS011;45801;51.810;19.444;2023-06-26T01:57:46;10.90;;;5.70;;
59938;SDS011;45801;51.810;19.444;2023-06-26T02:00:14;9.80;;;5.20;;
59938;SDS011;45801;51.810;19.444;2023-06-26T02:02:45;10.90;;;6.30;;
59938;SDS011;45801;51.810;19.444;2023-06-26T02:05:12;12.70;;;6.40;;
59938;SDS011;45801;51.810;19.444;2023-06-26T02:07:39;10.70;;;6.20;;
59938;SDS011;45801;51.810;19.444;2023-06-26T02:10:06;12.40;;;6.60;;
59938;SDS011;45801;51.810;19.444;2023-06-26T02:12:34;10.80;;;6.00;;
59938;SDS011;45801;51.810;19.444;2023-06-26T02:15:02;10.50;;;5.70;;
59938;SDS011;45801;51.810;19.444;2023-06-26T02:17:30;11.30;;;6.40;;
59938;SDS011;45801;51.810;19.444;2023-06-26T02:19:57;11.30;;;6.00;;
59938;SDS011;45801;51.810;19.444;2023-06-26T02:22:23;11.90;;;6.40;;
59938;SDS011;45801;51.810;19.444;2023-06-26T02:24:50;11.40;;;6.30;;
59938;SDS011;45801;51.810;19.444;2023-06-26T02:27:16;10.40;;;5.70;;
59938;SDS011;45801;51.810;19.444;2023-06-26T02:29:43;10.20;;;5.80;;
59938;SDS011;45801;51.810;19.444;2023-06-26T02:32:09;10.30;;;5.70;;
59938;SDS011;45801;51.810;19.444;2023-06-26T02:34:36;11.50;;;6.60;;
59938;SDS011;45801;51.810;19.444;2023-06-26T02:37:03;12.40;;;6.30;;
59938;SDS011;45801;51.810;19.444;2023-06-26T02:39:29;11.70;;;6.00;;
59938;SDS011;45801;51.810;19.444;2023-06-26T02:41:56;9.80;;;5.80;;
59938;SDS011;45801;51.810;19.444;2023-06-26T02:44:22;12.50;;;6.70;;
59938;SDS011;45801;51.810;19.444;2023-06-26T02:46:49;10.60;;;6.30;;
59938;SDS011;45801;51.810;19.444;2023-06-26T02:49:15;12.30;;;6.00;;
59938;SDS011;45801;51.810;19.444;2023-06-26T02:51:43;12.40;;;6.10;;
59938;SDS011;45801;51.810;19.444;2023-06-26T02:54:09;11.70;;;6.30;;
59938;SDS011;45801;51.810;19.444;2023-06-26T02:56:36;12.60;;;6.10;;
59938;SDS011;45801;51.810;19.444;2023-06-26T02:59:02;13.00;;;6.70;;
59938;SDS011;45801;51.810;19.444;2023-06-26T03:01:29;11.60;;;6.50;;
59938;SDS011;45801;51.810;19.444;2023-06-26T03:03:56;11.50;;;6.40;;
59938;SDS011;45801;51.810;19.444;2023-06-26T03:06:22;11.10;;;6.30;;
59938;SDS011;45801;51.810;19.444;2023-06-26T03:08:49;10.60;;;6.00;;
59938;SDS011;45801;51.810;19.444;2023-06-26T03:11:15;10.70;;;6.30;;
59938;SDS011;45801;51.810;19.444;2023-06-26T03:13:42;11.40;;;6.30;;
59938;SDS011;45801;51.810;19.444;2023-06-26T03:16:08;10.30;;;6.10;;
59938;SDS011;45801;51.810;19.444;2023-06-26T03:18:35;11.70;;;6.10;;
59938;SDS011;45801;51.810;19.444;2023-06-26T03:21:01;11.70;;;6.50;;
59938;SDS011;45801;51.810;19.444;2023-06-26T03:23:28;10.80;;;6.50;;
59938;SDS011;45801;51.810;19.444;2023-06-26T03:26:01;11.10;;;6.10;;
59938;SDS011;45801;51.810;19.444;2023-06-26T03:28:28;11.40;;;6.40;;
59938;SDS011;45801;51.810;19.444;2023-06-26T03:30:54;10.80;;;6.10;;
59938;SDS011;45801;51.810;19.444;2023-06-26T03:33:21;10.90;;;5.90;;
59938;SDS011;45801;51.810;19.444;2023-06-26T03:35:47;11.70;;;6.30;;
59938;SDS011;45801;51.810;19.444;2023-06-26T03:38:13;12.00;;;6.10;;
59938;SDS011;45801;51.810;19.444;2023-06-26T03:40:40;11.30;;;6.00;;
59938;SDS011;45801;51.810;19.444;2023-06-26T03:43:07;11.20;;;5.80;;
59938;SDS011;45801;51.810;19.444;2023-06-26T03:45:33;12.80;;;6.70;;
59938;SDS011;45801;51.810;19.444;2023-06-26T03:48:00;11.60;;;6.40;;
59938;SDS011;45801;51.810;19.444;2023-06-26T03:50:27;10.40;;;6.50;;
59938;SDS011;45801;51.810;19.444;2023-06-26T03:52:53;12.10;;;6.20;;
59938;SDS011;45801;51.810;19.444;2023-06-26T03:55:21;12.10;;;6.00;;
59938;SDS011;45801;51.810;19.444;2023-06-26T03:57:48;11.80;;;6.20;;
59938;SDS011;45801;51.810;19.444;2023-06-26T04:00:15;11.30;;;6.00;;
59938;SDS011;45801;51.810;19.444;2023-06-26T04:02:42;11.20;;;5.90;;
59938;SDS011;45801;51.810;19.444;2023-06-26T04:05:08;11.80;;;6.30;;
59938;SDS011;45801;51.810;19.444;2023-06-26T04:07:36;10.80;;;5.90;;
59938;SDS011;45801;51.810;19.444;2023-06-26T04:10:03;11.10;;;6.30;;
59938;SDS011;45801;51.810;19.444;2023-06-26T04:12:31;10.90;;;6.10;;
59938;SDS011;45801;51.810;19.444;2023-06-26T04:14:57;12.30;;;6.40;;
59938;SDS011;45801;51.810;19.444;2023-06-26T04:17:24;12.50;;;6.20;;
59938;SDS011;45801;51.810;19.444;2023-06-26T04:19:50;10.90;;;5.60;;
59938;SDS011;45801;51.810;19.444;2023-06-26T04:22:16;10.70;;;5.80;;
59938;SDS011;45801;51.810;19.444;2023-06-26T04:24:43;9.70;;;5.50;;
59938;SDS011;45801;51.810;19.444;2023-06-26T04:27:12;12.00;;;6.70;;
59938;SDS011;45801;51.810;19.444;2023-06-26T04:29:40;13.10;;;6.70;;
59938;SDS011;45801;51.810;19.444;2023-06-26T04:32:06;11.00;;;7.00;;
59938;SDS011;45801;51.810;19.444;2023-06-26T04:34:33;12.10;;;7.70;;
59938;SDS011;45801;51.810;19.444;2023-06-26T04:37:01;12.10;;;7.40;;
59938;SDS011;45801;51.810;19.444;2023-06-26T04:39:30;10.90;;;6.40;;
59938;SDS011;45801;51.810;19.444;2023-06-26T04:41:57;10.80;;;6.50;;
59938;SDS011;45801;51.810;19.444;2023-06-26T04:44:23;11.60;;;7.00;;
59938;SDS011;45801;51.810;19.444;2023-06-26T04:46:50;11.80;;;7.20;;
59938;SDS011;45801;51.810;19.444;2023-06-26T04:49:18;12.70;;;6.80;;
59938;SDS011;45801;51.810;19.444;2023-06-26T04:51:46;12.20;;;6.40;;
59938;SDS011;45801;51.810;19.444;2023-06-26T04:54:12;11.10;;;6.90;;
59938;SDS011;45801;51.810;19.444;2023-06-26T04:56:39;12.20;;;7.30;;
59938;SDS011;45801;51.810;19.444;2023-06-26T04:59:06;11.90;;;7.40;;
59938;SDS011;45801;51.810;19.444;2023-06-26T05:01:32;11.50;;;7.30;;
59938;SDS011;45801;51.810;19.444;2023-06-26T05:03:59;12.20;;;7.00;;
59938;SDS011;45801;51.810;19.444;2023-06-26T05:06:25;12.50;;;7.40;;
59938;SDS011;45801;51.810;19.444;2023-06-26T05:08:52;13.20;;;7.70;;
59938;SDS011;45801;51.810;19.444;2023-06-26T05:11:26;17.00;;;8.80;;
59938;SDS011;45801;51.810;19.444;2023-06-26T05:13:53;12.20;;;7.50;;
59938;SDS011;45801;51.810;19.444;2023-06-26T05:16:20;14.20;;;8.20;;
59938;SDS011;45801;51.810;19.444;2023-06-26T05:18:46;13.60;;;7.20;;
59938;SDS011;45801;51.810;19.444;2023-06-26T05:21:13;12.80;;;7.70;;
59938;SDS011;45801;51.810;19.444;2023-06-26T05:23:40;12.70;;;6.80;;
59938;SDS011;45801;51.810;19.444;2023-06-26T05:26:07;12.70;;;7.30;;
59938;SDS011;45801;51.810;19.444;2023-06-26T05:28:35;12.00;;;7.00;;
59938;SDS011;45801;51.810;19.444;2023-06-26T05:31:02;10.80;;;6.40;;
59938;SDS011;45801;51.810;19.444;2023-06-26T05:33:31;12.90;;;6.90;;
59938;SDS011;45801;51.810;19.444;2023-06-26T05:36:03;10.80;;;6.60;;
59938;SDS011;45801;51.810;19.444;2023-06-26T05:38:31;11.10;;;6.70;;
59938;SDS011;45801;51.810;19.444;2023-06-26T05:40:58;10.90;;;6.20;;
59938;SDS011;45801;51.810;19.444;2023-06-26T05:43:24;12.30;;;7.80;;
59938;SDS011;45801;51.810;19.444;2023-06-26T05:45:51;9.00;;;4.60;;
59938;SDS011;45801;51.810;19.444;2023-06-26T05:48:18;9.90;;;5.10;;
59938;SDS011;45801;51.810;19.444;2023-06-26T05:50:44;11.70;;;5.30;;
59938;SDS011;45801;51.810;19.444;2023-06-26T05:53:11;11.00;;;6.50;;
59938;SDS011;45801;51.810;19.444;2023-06-26T05:55:38;11.80;;;6.00;;
59938;SDS011;45801;51.810;19.444;2023-06-26T05:58:07;11.90;;;6.70;;
59938;SDS011;45801;51.810;19.444;2023-06-26T06:00:36;10.60;;;5.50;;
59938;SDS011;45801;51.810;19.444;2023-06-26T06:03:03;10.10;;;5.50;;
59938;SDS011;45801;51.810;19.444;2023-06-26T06:05:31;10.70;;;5.00;;
59938;SDS011;45801;51.810;19.444;2023-06-26T06:07:58;10.90;;;4.90;;
59938;SDS011;45801;51.810;19.444;2023-06-26T06:10:24;11.30;;;6.10;;
59938;SDS011;45801;51.810;19.444;2023-06-26T06:12:50;8.90;;;5.50;;
59938;SDS011;45801;51.810;19.444;2023-06-26T06:15:18;10.20;;;4.80;;
59938;SDS011;45801;51.810;19.444;2023-06-26T06:17:45;9.00;;;4.90;;
59938;SDS011;45801;51.810;19.444;2023-06-26T06:20:12;9.70;;;5.60;;
59938;SDS011;45801;51.810;19.444;2023-06-26T06:22:38;8.60;;;4.60;;
59938;SDS011;45801;51.810;19.444;2023-06-26T06:25:04;9.70;;;4.70;;
59938;SDS011;45801;51.810;19.444;2023-06-26T06:27:31;9.60;;;5.00;;
59938;SDS011;45801;51.810;19.444;2023-06-26T06:29:58;9.60;;;4.70;;
59938;SDS011;45801;51.810;19.444;2023-06-26T06:32:24;11.30;;;5.20;;
59938;SDS011;45801;51.810;19.444;2023-06-26T06:34:51;12.30;;;5.00;;
59938;SDS011;45801;51.810;19.444;2023-06-26T06:37:17;7.90;;;4.40;;
59938;SDS011;45801;51.810;19.444;2023-06-26T06:39:44;9.40;;;4.60;;
59938;SDS011;45801;51.810;19.444;2023-06-26T06:42:10;9.10;;;4.90;;
59938;SDS011;45801;51.810;19.444;2023-06-26T06:44:37;9.80;;;4.30;;
59938;SDS011;45801;51.810;19.444;2023-06-26T06:47:03;7.40;;;3.80;;
59938;SDS011;45801;51.810;19.444;2023-06-26T06:49:30;8.90;;;4.30;;
59938;SDS011;45801;51.810;19.444;2023-06-26T06:51:56;8.20;;;4.60;;
59938;SDS011;45801;51.810;19.444;2023-06-26T06:54:25;10.10;;;4.60;;
59938;SDS011;45801;51.810;19.444;2023-06-26T06:56:53;10.50;;;4.40;;
59938;SDS011;45801;51.810;19.444;2023-06-26T06:59:20;9.10;;;5.00;;
59938;SDS011;45801;51.810;19.444;2023-06-26T07:01:46;10.20;;;4.60;;
59938;SDS011;45801;51.810;19.444;2023-06-26T07:04:12;9.20;;;4.70;;
59938;SDS011;45801;51.810;19.444;2023-06-26T07:06:39;9.10;;;4.80;;
59938;SDS011;45801;51.810;19.444;2023-06-26T07:09:05;9.00;;;4.70;;
59938;SDS011;45801;51.810;19.444;2023-06-26T07:11:33;8.50;;;4.70;;
59938;SDS011;45801;51.810;19.444;2023-06-26T07:13:59;8.60;;;4.60;;
59938;SDS011;45801;51.810;19.444;2023-06-26T07:16:26;9.20;;;4.70;;
59938;SDS011;45801;51.810;19.444;2023-06-26T07:18:52;8.00;;;4.40;;
59938;SDS011;45801;51.810;19.444;2023-06-26T07:21:19;8.10;;;4.20;;
59938;SDS011;45801;51.810;19.444;2023-06-26T07:23:45;9.70;;;4.80;;
59938;SDS011;45801;51.810;19.444;2023-06-26T07:26:13;9.60;;;4.40;;
59938;SDS011;45801;51.810;19.444;2023-06-26T07:28:40;9.70;;;4.20;;
59938;SDS011;45801;51.810;19.444;2023-06-26T07:31:07;8.70;;;4.70;;
59938;SDS011;45801;51.810;19.444;2023-06-26T07:33:33;8.40;;;4.50;;
59938;SDS011;45801;51.810;19.444;2023-06-26T07:36:00;7.40;;;4.20;;
59938;SDS011;45801;51.810;19.444;2023-06-26T07:38:27;9.90;;;4.90;;
59938;SDS011;45801;51.810;19.444;2023-06-26T07:40:53;7.20;;;3.80;;
59938;SDS011;45801;51.810;19.444;2023-06-26T07:43:19;8.20;;;3.80;;
59938;SDS011;45801;51.810;19.444;2023-06-26T07:45:46;7.80;;;3.80;;
59938;SDS011;45801;51.810;19.444;2023-06-26T07:48:12;7.60;;;4.20;;
59938;SDS011;45801;51.810;19.444;2023-06-26T07:50:39;8.00;;;3.90;;
59938;SDS011;45801;51.810;19.444;2023-06-26T07:53:06;7.60;;;3.90;;
59938;SDS011;45801;51.810;19.444;2023-06-26T07:55:32;7.50;;;4.10;;
59938;SDS011;45801;51.810;19.444;2023-06-26T07:57:59;7.90;;;3.90;;
59938;SDS011;45801;51.810;19.444;2023-06-26T08:00:25;8.40;;;3.80;;
59938;SDS011;45801;51.810;19.444;2023-06-26T08:02:52;7.50;;;3.70;;
59938;SDS011;45801;51.810;19.444;2023-06-26T08:05:19;7.30;;;3.70;;
59938;SDS011;45801;51.810;19.444;2023-06-26T08:07:45;7.30;;;3.90;;
59938;SDS011;45801;51.810;19.444;2023-06-26T08:10:13;8.60;;;3.90;;
59938;SDS011;45801;51.810;19.444;2023-06-26T08:12:39;8.30;;;4.00;;
59938;SDS011;45801;51.810;19.444;2023-06-26T08:15:08;7.00;;;3.70;;
59938;SDS011;45801;51.810;19.444;2023-06-26T08:17:35;9.30;;;4.10;;
59938;SDS011;45801;51.810;19.444;2023-06-26T08:20:02;8.60;;;4.10;;
59938;SDS011;45801;51.810;19.444;2023-06-26T08:22:30;8.10;;;3.70;;
59938;SDS011;45801;51.810;19.444;2023-06-26T08:24:57;8.00;;;3.70;;
59938;SDS011;45801;51.810;19.444;2023-06-26T08:27:23;7.00;;;3.20;;
59938;SDS011;45801;51.810;19.444;2023-06-26T08:29:50;7.80;;;3.60;;
59938;SDS011;45801;51.810;19.444;2023-06-26T08:32:16;7.10;;;3.50;;
59938;SDS011;45801;51.810;19.444;2023-06-26T08:34:43;8.70;;;3.30;;
59938;SDS011;45801;51.810;19.444;2023-06-26T08:37:09;9.40;;;3.80;;
59938;SDS011;45801;51.810;19.444;2023-06-26T08:39:36;9.40;;;3.50;;
59938;SDS011;45801;51.810;19.444;2023-06-26T08:42:02;6.80;;;3.60;;
59938;SDS011;45801;51.810;19.444;2023-06-26T08:44:29;8.00;;;3.20;;
59938;SDS011;45801;51.810;19.444;2023-06-26T08:46:56;6.40;;;3.10;;
59938;SDS011;45801;51.810;19.444;2023-06-26T08:52:29;7.10;;;3.60;;
59938;SDS011;45801;51.810;19.444;2023-06-26T08:55:16;7.20;;;3.50;;
59938;SDS011;45801;51.810;19.444;2023-06-26T08:57:44;7.90;;;3.70;;
59938;SDS011;45801;51.810;19.444;2023-06-26T09:00:11;8.90;;;3.60;;
59938;SDS011;45801;51.810;19.444;2023-06-26T09:02:41;7.00;;;3.00;;
59938;SDS011;45801;51.810;19.444;2023-06-26T09:05:08;7.10;;;3.30;;
59938;SDS011;45801;51.810;19.444;2023-06-26T09:07:34;8.30;;;3.30;;
59938;SDS011;45801;51.810;19.444;2023-06-26T09:10:00;7.90;;;3.80;;
59938;SDS011;45801;51.810;19.444;2023-06-26T09:12:28;7.20;;;3.70;;
59938;SDS011;45801;51.810;19.444;2023-06-26T09:14:57;7.50;;;3.70;;
59938;SDS011;45801;51.810;19.444;2023-06-26T09:17:25;7.20;;;3.60;;
59938;SDS011;45801;51.810;19.444;2023-06-26T09:19:56;6.90;;;3.50;;
59938;SDS011;45801;51.810;19.444;2023-06-26T09:22:23;6.70;;;3.30;;
59938;SDS011;45801;51.810;19.444;2023-06-26T09:24:50;8.40;;;3.60;;
59938;SDS011;45801;51.810;19.444;2023-06-26T09:27:17;7.60;;;3.80;;
59938;SDS011;45801;51.810;19.444;2023-06-26T09:29:47;7.40;;;3.40;;
59938;SDS011;45801;51.810;19.444;2023-06-26T09:32:14;6.60;;;3.20;;
59938;SDS011;45801;51.810;19.444;2023-06-26T09:34:41;7.50;;;3.30;;
59938;SDS011;45801;51.810;19.444;2023-06-26T09:37:13;7.40;;;3.50;;
59938;SDS011;45801;51.810;19.444;2023-06-26T09:39:40;7.10;;;3.20;;
59938;SDS011;45801;51.810;19.444;2023-06-26T09:42:07;8.30;;;3.60;;
59938;SDS011;45801;51.810;19.444;2023-06-26T09:44:33;6.80;;;3.30;;
59938;SDS011;45801;51.810;19.444;2023-06-26T09:47:01;8.40;;;3.60;;
59938;SDS011;45801;51.810;19.444;2023-06-26T09:49:31;7.90;;;3.90;;
59938;SDS011;45801;51.810;19.444;2023-06-26T09:51:59;6.80;;;3.50;;
59938;SDS011;45801;51.810;19.444;2023-06-26T09:54:26;7.80;;;3.70;;
59938;SDS011;45801;51.810;19.444;2023-06-26T09:56:55;6.80;;;3.60;;
59938;SDS011;45801;51.810;19.444;2023-06-26T09:59:33;7.30;;;3.40;;
59938;SDS011;45801;51.810;19.444;2023-06-26T10:02:00;8.20;;;3.40;;
59938;SDS011;45801;51.810;19.444;2023-06-26T10:04:28;6.70;;;3.30;;
59938;SDS011;45801;51.810;19.444;2023-06-26T10:06:55;7.30;;;3.60;;
59938;SDS011;45801;51.810;19.444;2023-06-26T10:09:23;7.40;;;3.80;;
59938;SDS011;45801;51.810;19.444;2023-06-26T10:11:55;6.90;;;3.90;;
59938;SDS011;45801;51.810;19.444;2023-06-26T10:14:26;7.00;;;3.80;;
59938;SDS011;45801;51.810;19.444;2023-06-26T10:16:55;8.00;;;3.70;;
59938;SDS011;45801;51.810;19.444;2023-06-26T10:19:25;9.00;;;3.60;;
59938;SDS011;45801;51.810;19.444;2023-06-26T10:21:53;8.20;;;4.00;;
59938;SDS011;45801;51.810;19.444;2023-06-26T10:24:22;7.60;;;4.10;;
59938;SDS011;45801;51.810;19.444;2023-06-26T10:26:50;8.00;;;4.10;;
59938;SDS011;45801;51.810;19.444;2023-06-26T10:29:24;7.90;;;3.70;;
59938;SDS011;45801;51.810;19.444;2023-06-26T10:31:54;8.70;;;3.70;;
59938;SDS011;45801;51.810;19.444;2023-06-26T10:34:23;6.90;;;3.40;;
59938;SDS011;45801;51.810;19.444;2023-06-26T10:37:00;9.20;;;4.10;;
59938;SDS011;45801;51.810;19.444;2023-06-26T10:39:27;7.00;;;3.50;;
59938;SDS011;45801;51.810;19.444;2023-06-26T10:44:40;7.60;;;3.90;;
59938;SDS011;45801;51.810;19.444;2023-06-26T10:47:11;7.50;;;4.30;;
59938;SDS011;45801;51.810;19.444;2023-06-26T10:49:54;6.90;;;3.30;;
59938;SDS011;45801;51.810;19.444;2023-06-26T10:52:21;7.00;;;3.30;;
59938;SDS011;45801;51.810;19.444;2023-06-26T10:54:48;7.10;;;3.40;;
59938;SDS011;45801;51.810;19.444;2023-06-26T10:57:17;8.20;;;3.50;;
59938;SDS011;45801;51.810;19.444;2023-06-26T10:59:50;6.60;;;3.40;;
59938;SDS011;45801;51.810;19.444;2023-06-26T11:02:50;6.70;;;3.40;;
59938;SDS011;45801;51.810;19.444;2023-06-26T11:05:27;7.00;;;3.50;;
59938;SDS011;45801;51.810;19.444;2023-06-26T11:10:52;7.00;;;3.10;;
59938;SDS011;45801;51.810;19.444;2023-06-26T11:13:20;7.60;;;3.90;;
59938;SDS011;45801;51.810;19.444;2023-06-26T11:15:47;7.60;;;3.70;;
59938;SDS011;45801;51.810;19.444;2023-06-26T11:18:16;7.30;;;3.80;;
59938;SDS011;45801;51.810;19.444;2023-06-26T11:20:42;7.50;;;3.80;;
59938;SDS011;45801;51.810;19.444;2023-06-26T11:23:09;9.20;;;4.20;;
59938;SDS011;45801;51.810;19.444;2023-06-26T11:25:36;8.40;;;3.70;;
59938;SDS011;45801;51.810;19.444;2023-06-26T11:28:04;7.40;;;3.80;;
59938;SDS011;45801;51.810;19.444;2023-06-26T11:30:32;7.90;;;3.80;;
59938;SDS011;45801;51.810;19.444;2023-06-26T11:33:05;8.10;;;3.40;;
59938;SDS011;45801;51.810;19.444;2023-06-26T11:35:33;7.50;;;3.70;;
59938;SDS011;45801;51.810;19.444;2023-06-26T11:38:00;7.30;;;3.60;;
59938;SDS011;45801;51.810;19.444;2023-06-26T11:40:34;7.10;;;3.50;;
59938;SDS011;45801;51.810;19.444;2023-06-26T11:43:03;7.10;;;3.20;;
59938;SDS011;45801;51.810;19.444;2023-06-26T11:45:30;7.40;;;3.90;;
59938;SDS011;45801;51.810;19.444;2023-06-26T11:47:58;8.00;;;4.40;;
59938;SDS011;45801;51.810;19.444;2023-06-26T11:50:27;7.40;;;3.70;;
59938;SDS011;45801;51.810;19.444;2023-06-26T11:52:54;7.90;;;3.90;;
59938;SDS011;45801;51.810;19.444;2023-06-26T11:55:22;8.10;;;4.10;;
59938;SDS011;45801;51.810;19.444;2023-06-26T11:57:52;7.10;;;4.00;;
59938;SDS011;45801;51.810;19.444;2023-06-26T12:00:20;8.70;;;4.10;;
59938;SDS011;45801;51.810;19.444;2023-06-26T12:02:47;9.80;;;4.10;;
59938;SDS011;45801;51.810;19.444;2023-06-26T12:05:15;8.10;;;3.90;;
59938;SDS011;45801;51.810;19.444;2023-06-26T12:07:43;8.90;;;4.10;;
59938;SDS011;45801;51.810;19.444;2023-06-26T12:10:11;7.90;;;4.40;;
59938;SDS011;45801;51.810;19.444;2023-06-26T12:12:40;8.60;;;4.20;;
59938;SDS011;45801;51.810;19.444;2023-06-26T12:15:08;7.40;;;4.00;;
59938;SDS011;45801;51.810;19.444;2023-06-26T12:17:37;7.80;;;4.20;;
59938;SDS011;45801;51.810;19.444;2023-06-26T12:20:17;7.90;;;4.20;;
59938;SDS011;45801;51.810;19.444;2023-06-26T12:22:47;7.70;;;3.90;;
59938;SDS011;45801;51.810;19.444;2023-06-26T12:25:15;7.20;;;3.50;;
59938;SDS011;45801;51.810;19.444;2023-06-26T12:27:44;7.30;;;4.10;;
59938;SDS011;45801;51.810;19.444;2023-06-26T12:30:12;7.60;;;3.90;;
59938;SDS011;45801;51.810;19.444;2023-06-26T12:32:39;8.20;;;4.10;;
59938;SDS011;45801;51.810;19.444;2023-06-26T12:35:06;9.20;;;4.30;;
59938;SDS011;45801;51.810;19.444;2023-06-26T12:37:38;8.60;;;4.10;;
59938;SDS011;45801;51.810;19.444;2023-06-26T12:40:16;7.10;;;4.00;;
59938;SDS011;45801;51.810;19.444;2023-06-26T12:42:45;7.50;;;3.80;;
59938;SDS011;45801;51.810;19.444;2023-06-26T12:45:13;7.60;;;4.30;;
59938;SDS011;45801;51.810;19.444;2023-06-26T12:47:40;8.50;;;3.90;;
59938;SDS011;45801;51.810;19.444;2023-06-26T12:50:07;7.70;;;4.20;;
59938;SDS011;45801;51.810;19.444;2023-06-26T12:52:35;7.70;;;4.00;;
59938;SDS011;45801;51.810;19.444;2023-06-26T12:55:01;8.90;;;4.10;;
59938;SDS011;45801;51.810;19.444;2023-06-26T12:57:28;7.40;;;3.80;;
59938;SDS011;45801;51.810;19.444;2023-06-26T12:59:54;7.40;;;3.50;;
59938;SDS011;45801;51.810;19.444;2023-06-26T13:02:22;7.30;;;4.00;;
59938;SDS011;45801;51.810;19.444;2023-06-26T13:04:48;7.50;;;4.20;;
59938;SDS011;45801;51.810;19.444;2023-06-26T13:07:15;8.30;;;3.80;;
59938;SDS011;45801;51.810;19.444;2023-06-26T13:09:42;8.20;;;4.10;;
59938;SDS011;45801;51.810;19.444;2023-06-26T13:12:11;8.30;;;3.90;;
59938;SDS011;45801;51.810;19.444;2023-06-26T13:14:38;8.50;;;4.00;;
59938;SDS011;45801;51.810;19.444;2023-06-26T13:17:06;8.80;;;4.40;;
59938;SDS011;45801;51.810;19.444;2023-06-26T13:19:32;8.10;;;4.30;;
59938;SDS011;45801;51.810;19.444;2023-06-26T13:21:58;6.70;;;3.30;;
59938;SDS011;45801;51.810;19.444;2023-06-26T13:24:26;7.30;;;3.90;;
59938;SDS011;45801;51.810;19.444;2023-06-26T13:26:52;7.20;;;3.30;;
59938;SDS011;45801;51.810;19.444;2023-06-26T13:29:20;6.30;;;3.50;;
59938;SDS011;45801;51.810;19.444;2023-06-26T13:31:46;6.90;;;3.50;;
59938;SDS011;45801;51.810;19.444;2023-06-26T13:34:19;7.50;;;3.40;;
59938;SDS011;45801;51.810;19.444;2023-06-26T13:36:48;6.20;;;3.10;;
59938;SDS011;45801;51.810;19.444;2023-06-26T13:39:14;7.10;;;3.60;;
59938;SDS011;45801;51.810;19.444;2023-06-26T13:41:41;7.90;;;3.60;;
59938;SDS011;45801;51.810;19.444;2023-06-26T13:44:07;7.30;;;3.70;;
59938;SDS011;45801;51.810;19.444;2023-06-26T13:46:34;7.40;;;3.80;;
59938;SDS011;45801;51.810;19.444;2023-06-26T13:49:00;6.80;;;3.30;;
59938;SDS011;45801;51.810;19.444;2023-06-26T13:51:27;6.00;;;3.20;;
59938;SDS011;45801;51.810;19.444;2023-06-26T13:53:54;6.50;;;3.40;;
59938;SDS011;45801;51.810;19.444;2023-06-26T13:56:21;8.20;;;3.50;;
59938;SDS011;45801;51.810;19.444;2023-06-26T13:58:49;6.50;;;3.20;;
59938;SDS011;45801;51.810;19.444;2023-06-26T14:01:15;7.30;;;3.50;;
59938;SDS011;45801;51.810;19.444;2023-06-26T14:03:42;7.40;;;3.50;;
59938;SDS011;45801;51.810;19.444;2023-06-26T14:06:08;7.20;;;3.40;;
59938;SDS011;45801;51.810;19.444;2023-06-26T14:08:36;7.30;;;3.60;;
59938;SDS011;45801;51.810;19.444;2023-06-26T14:11:02;7.20;;;3.60;;
59938;SDS011;45801;51.810;19.444;2023-06-26T14:13:29;7.20;;;3.60;;
59938;SDS011;45801;51.810;19.444;2023-06-26T14:15:55;8.30;;;3.80;;
59938;SDS011;45801;51.810;19.444;2023-06-26T14:18:22;7.80;;;3.30;;
59938;SDS011;45801;51.810;19.444;2023-06-26T14:20:50;6.90;;;3.50;;
59938;SDS011;45801;51.810;19.444;2023-06-26T14:23:16;7.10;;;3.50;;
59938;SDS011;45801;51.810;19.444;2023-06-26T14:25:43;8.10;;;3.70;;
59938;SDS011;45801;51.810;19.444;2023-06-26T14:28:10;6.70;;;3.30;;
59938;SDS011;45801;51.810;19.444;2023-06-26T14:30:37;8.60;;;3.20;;
59938;SDS011;45801;51.810;19.444;2023-06-26T14:33:03;9.10;;;4.10;;
59938;SDS011;45801;51.810;19.444;2023-06-26T14:35:29;6.70;;;3.40;;
59938;SDS011;45801;51.810;19.444;2023-06-26T14:37:56;8.20;;;3.70;;
59938;SDS011;45801;51.810;19.444;2023-06-26T14:40:23;8.30;;;3.50;;
59938;SDS011;45801;51.810;19.444;2023-06-26T14:42:49;7.00;;;3.40;;
59938;SDS011;45801;51.810;19.444;2023-06-26T14:45:15;7.60;;;3.70;;
59938;SDS011;45801;51.810;19.444;2023-06-26T14:47:43;7.60;;;3.80;;